Meteo Giornale » Osservazioni meteo Italia » Capo Bellavista

ore: 09:55 - Osservazioni Meteo Capo Bellavista
Lat. 39° 56' N Lon. 9° 43' E Alt. 138 metri s.l.m.

sereno Europe/Rome

23 °C

Sereno

Temp. 24 Ore

18 °C

25 °C

Est/Sud-Est

9.3 Km/h

Dew point 14 °C

Umidità 56 %

Visibilità  10 Km

Il sole sorge alle ore 05:51

Il sole tramonta alle ore 20:48

Data e Ora Cielo e Fenomeni T °C DP °C Um. % Pres. hPa Vis. km Vento km/h
Oggi h: 09:55 sereno Sereno 23 14 56 1008 10 E/SE 9.3
Oggi h: 08:55 sereno Sereno 21 13 60 1008 10 SO 13
Oggi h: 07:55 sereno Sereno 21 13 60 1008 10 S/SO 7.4
Oggi h: 06:55 sereno Sereno 19 11 59 1007 10 E 7.4
Oggi h: 05:55 sereno Sereno 18 11 63 1007 10 E 11.1
Oggi h: 04:55 sereno Sereno 18 12 67 1007 10 S/SE 9.3
Oggi h: 03:55 sereno Sereno 19 10 55 1007 10 E/SE 14.8
Oggi h: 02:55 sereno Sereno 18 9 55 1007 10 S 7.4
Oggi h: 01:55 sereno Sereno 18 11 63 1007 10 SE 7.4
Oggi h: 00:55 sereno Sereno 19 9 52 1006 10 S/SE 13
Ieri h: 23:55 sereno Sereno 19 7 45 1006 10 S 7.4
Ieri h: 22:55 sereno Sereno 19 7 45 1005 10 N 11.1
Ieri h: 21:55 sereno Sereno 20 8 45 1005 10 N/NO 24
Ieri h: 20:55 sereno Sereno 20 5 37 1004 10 N/NO 14.8
Ieri h: 19:55 poco_nuvoloso Poco Nuvoloso 21 4 32 1004 10 NO 20.3
Ieri h: 18:55 poco_nuvoloso Poco Nuvoloso 24 6 31 1004 10 NO 20.3
Ieri h: 17:55 nuvoloso Nuvoloso 24 5 29 1003 10 NO 35.2
Ieri h: 16:55 nuvoloso Nuvoloso 24 3 25 1003 10 NO 48.1
Ieri h: 15:55 nuvoloso Nuvoloso 24 1 22 1003 10 NO 48.1
Ieri h: 14:55 nuvoloso Nuvoloso 25 2 22 1003 10 N/NO 51.8
Ieri h: 13:55 nuvoloso Nuvoloso 25 8 33 1003 10 NO 44.4
Ieri h: 12:55 molto_nuvoloso Molto Nuvoloso 24 8 35 1003 10 S/SE 11.1
Ieri h: 11:55 molto_nuvoloso Molto Nuvoloso 25 10 38 1002 10 SE 11.1
Ieri h: 10:55 nuvoloso Nuvoloso 23 -0 21 1003 10 O/NO 18.5